»·PEaware :: VIPER17 KSBA-KCRQ

VIPER17 :: KSBA-KCRQ

FLIGHT INFORMATION

Flight Status: Arrived
Operator: Unknown
More flights by this operator :: More flights under this callsign
Pilot: Kevin M. (7)
Aircraft: GENERAL DYNAMICS F-16 FIGHTING FALCON
(F16)
More flights by this aircraft type
Origin: KSBA Santa Barbara Mun
United States
Destination: KCRQ McClellan-Palomar
United States
More flights between these airports :: More routes between these airports
Route: +KWANG VTU V208 SXC V208 OCN
File this flight plan on PilotEdge
Remarks:
Altitude:
(Current/Filed)
11,000ft
Speed:
(Current/Filed)
555kts
Departed: 08-Nov-19 06:30 PM
Arrived: 08-Nov-19 07:06 PM
Distance/Time
Traveled:
150nm/0:36
Distance/Time
To Go:
Arrived

Flight Plot

Page will automatically refresh every two minutes.


Map Options




Map Legend


Flown Route
Filed Route
Departure Airport
Arrival Airport
Navaid (VOR, NDB)
Fix

Horizontal Profiles

Position Reports

Time Latitude Longitude Heading Altitude Ground
Speed
08-Nov-19 18:15 34.426616 -119.841724 87 18ft 33kts
08-Nov-19 18:16 34.424041 -119.837525 165 16ft 19kts
08-Nov-19 18:17 34.422718 -119.835881 0 17ft 3kts
08-Nov-19 18:18 34.422776 -119.836230 257 16ft 0kts
08-Nov-19 18:19 34.422776 -119.836230 257 16ft 0kts
08-Nov-19 18:20 34.422776 -119.836230 257 16ft 0kts
08-Nov-19 18:21 34.422776 -119.836230 257 16ft 0kts
08-Nov-19 18:22 34.422776 -119.836230 257 16ft 0kts
08-Nov-19 18:23 34.422776 -119.836230 257 16ft 0kts
08-Nov-19 18:24 34.422776 -119.836230 257 16ft 0kts
08-Nov-19 18:25 34.422740 -119.836441 258 15ft 0kts
08-Nov-19 18:26 34.423603 -119.837393 344 16ft 17kts
08-Nov-19 18:27 34.426711 -119.837144 83 16ft 10kts
08-Nov-19 18:28 34.426959 -119.834650 17 14ft 0kts
08-Nov-19 18:29 34.427446 -119.856111 267 2299ft 162kts
08-Nov-19 18:30 34.420938 -119.933954 265 7816ft 273kts
08-Nov-19 18:31 34.413153 -120.029465 267 10178ft 338kts
08-Nov-19 18:32 34.369858 -120.119685 188 11042ft 351kts
08-Nov-19 18:33 34.292309 -120.045278 119 11047ft 520kts
08-Nov-19 18:34 34.197083 -119.872501 122 10982ft 629kts
08-Nov-19 18:35 34.099661 -119.697279 122 10983ft 630kts
08-Nov-19 18:36 34.001380 -119.521373 122 10990ft 631kts
08-Nov-19 18:37 33.906517 -119.352425 121 10972ft 561kts
08-Nov-19 18:38 33.841012 -119.236256 121 10985ft 403kts
08-Nov-19 18:39 33.786457 -119.139730 120 10985ft 303kts
08-Nov-19 18:40 33.742869 -119.062744 120 10993ft 266kts
08-Nov-19 18:41 33.703505 -118.993409 120 10996ft 239kts
08-Nov-19 18:42 33.665462 -118.926493 120 11001ft 243kts
08-Nov-19 18:43 33.627317 -118.859548 121 10963ft 238kts
08-Nov-19 18:44 33.590641 -118.795280 121 10992ft 239kts
08-Nov-19 18:45 33.530908 -118.690809 123 11026ft 637kts
08-Nov-19 18:46 33.430356 -118.515862 123 10989ft 637kts
08-Nov-19 18:47 33.356777 -118.328269 92 10975ft 632kts
08-Nov-19 18:48 33.335426 -118.119864 98 10969ft 632kts
08-Nov-19 18:49 33.307594 -117.911722 98 10940ft 628kts
08-Nov-19 18:50 33.286262 -117.750974 98 10872ft 327kts
08-Nov-19 18:51 33.273806 -117.667806 98 10354ft 235kts
08-Nov-19 18:52 33.262198 -117.591053 98 9850ft 234kts
08-Nov-19 18:53 33.252684 -117.516342 96 9329ft 223kts
08-Nov-19 18:54 33.243720 -117.442908 97 8822ft 222kts
08-Nov-19 18:55 33.213296 -117.380721 89 8409ft 220kts
08-Nov-19 18:56 33.232482 -117.309437 58 7993ft 252kts
08-Nov-19 18:57 33.206753 -117.238975 111 7600ft 253kts
08-Nov-19 18:59 33.197294 -117.157016 86 7252ft 251kts
08-Nov-19 19:00 33.199387 -117.074060 93 5955ft 252kts
08-Nov-19 19:01 33.150272 -117.046324 237 4141ft 215kts
08-Nov-19 19:02 33.160354 -117.093120 250 3570ft 203kts
08-Nov-19 19:03 33.147733 -117.156521 261 2759ft 201kts
08-Nov-19 19:04 33.138554 -117.213068 258 1661ft 160kts
08-Nov-19 19:05 33.130789 -117.264021 259 518ft 141kts
08-Nov-19 19:06 33.127140 -117.287096 260 320ft 23kts
08-Nov-19 19:07 33.126327 -117.287066 93 318ft 8kts
08-Nov-19 19:08 33.126838 -117.283729 80 325ft 5kts
08-Nov-19 19:09 33.127340 -117.280745 79 316ft 6kts
08-Nov-19 19:10 33.127750 -117.278041 78 315ft 9kts
08-Nov-19 19:11 33.127589 -117.277189 349 317ft 0kts
08-Nov-19 19:12 33.127589 -117.277189 349 317ft 0kts
08-Nov-19 19:13 33.127589 -117.277189 349 317ft 0kts
08-Nov-19 19:14 33.127589 -117.277189 349 317ft 0kts
08-Nov-19 19:15 33.127589 -117.277189 349 317ft 0kts
08-Nov-19 19:16 33.128195 -117.275342 79 319ft 17kts
08-Nov-19 19:16 33.128604 -117.272960 51 315ft 0kts
08-Nov-19 19:18 33.128604 -117.272960 51 315ft 0kts
08-Nov-19 19:19 33.128604 -117.272960 51 315ft 0kts
08-Nov-19 19:19 33.128604 -117.272960 51 315ft 0kts
08-Nov-19 19:20 33.129178 -117.272553 355 312ft 14kts

Navigation Log

Ident Type
Flight plan parsing failed, navigation log unavailable